createdAt,value
2023-03-13T00:01:28.122Z,832.97
2023-03-13T04:47:18.219Z,843.45
2023-03-13T04:49:44.953Z,838.30
2023-03-13T04:52:11.664Z,844.55
2023-03-13T04:54:38.385Z,843.78
2023-03-13T04:57:05.214Z,850.67
2023-03-13T04:59:35.307Z,845.93
2023-03-13T05:02:01.956Z,854.63
2023-03-13T05:04:28.651Z,851.15
2023-03-13T05:06:55.304Z,852.60
2023-03-13T05:09:21.983Z,848.60
2023-03-13T05:11:50.290Z,849.72
2023-03-13T05:14:17.220Z,856.88
2023-03-13T05:16:43.869Z,853.03
2023-03-13T05:19:10.511Z,850.35
2023-03-13T05:21:37.132Z,852.05
2023-03-13T05:24:03.958Z,849.33
2023-03-13T05:26:30.598Z,848.90
2023-03-13T05:28:57.296Z,852.53
2023-03-13T05:31:24.031Z,846.80
2023-03-13T05:33:50.736Z,853.55
2023-03-13T05:36:17.416Z,836.50
2023-03-13T05:38:44.075Z,845.07
2023-03-13T05:41:10.723Z,849.58
2023-03-13T05:43:37.468Z,849.13
2023-03-13T05:46:04.214Z,834.17
2023-03-13T05:48:30.892Z,841.70
2023-03-13T05:50:57.494Z,844.50
2023-03-13T05:53:24.105Z,838.07
2023-03-13T05:55:50.814Z,843.25
2023-03-13T05:58:17.473Z,843.88
2023-03-13T06:00:44.323Z,839.97
2023-03-13T06:03:13.801Z,840.38
2023-03-13T06:05:40.948Z,837.67
2023-03-13T06:08:07.642Z,848.42
2023-03-13T06:10:34.391Z,843.58
2023-03-13T06:13:13.652Z,852.78
2023-03-13T06:15:52.493Z,852.00
2023-03-13T06:18:19.467Z,851.42
2023-03-13T06:20:46.110Z,850.58
2023-03-13T06:23:12.757Z,851.75
2023-03-13T06:25:39.428Z,845.03
2023-03-13T06:28:06.033Z,849.53
2023-03-13T06:30:32.638Z,853.23
2023-03-13T06:32:59.531Z,847.17
2023-03-13T06:35:26.206Z,860.92
2023-03-13T06:37:53.652Z,866.63
2023-03-13T06:40:20.303Z,867.92
2023-03-13T06:42:46.895Z,878.60
2023-03-13T06:45:13.549Z,878.75
2023-03-13T06:47:40.124Z,884.28
2023-03-13T06:50:07.212Z,893.88
2023-03-13T06:52:43.031Z,891.78
2023-03-13T06:55:10.753Z,886.97
2023-03-13T06:57:37.327Z,889.83
2023-03-13T07:00:06.247Z,889.40
2023-03-13T07:02:33.234Z,892.80
2023-03-13T07:04:59.937Z,884.35
2023-03-13T07:07:31.878Z,895.92
2023-03-13T07:09:59.233Z,881.13
2023-03-13T07:12:25.972Z,879.30
2023-03-13T07:14:52.605Z,877.72
2023-03-13T07:17:19.315Z,877.95
2023-03-13T07:19:46.056Z,873.35
2023-03-13T07:22:12.814Z,865.20
2023-03-13T07:24:39.456Z,872.95
2023-03-13T07:27:07.965Z,875.22
2023-03-13T07:29:35.429Z,879.58
2023-03-13T07:32:02.090Z,884.38
2023-03-13T07:34:28.959Z,876.25
2023-03-13T07:36:55.556Z,885.97
2023-03-13T07:39:22.274Z,893.47
2023-03-13T07:41:48.876Z,891.45
2023-03-13T07:44:15.617Z,883.97
2023-03-13T07:46:42.335Z,886.63
2023-03-13T07:49:09.059Z,893.28
2023-03-13T07:51:43.522Z,890.05
2023-03-13T07:54:11.807Z,882.67
2023-03-13T07:56:39.073Z,902.80
2023-03-13T07:59:06.849Z,891.30
2023-03-13T08:01:33.800Z,899.83
2023-03-13T08:04:05.568Z,891.22
2023-03-13T08:06:35.600Z,916.35
2023-03-13T08:09:02.570Z,906.20
2023-03-13T08:11:29.657Z,910.60
2023-03-13T08:13:57.539Z,910.35
2023-03-13T08:16:27.313Z,912.95
2023-03-13T08:18:56.683Z,918.38
2023-03-13T08:21:26.375Z,915.55
2023-03-13T08:23:54.906Z,910.43
2023-03-13T08:26:23.721Z,906.00
2023-03-13T08:28:55.812Z,916.75
2023-03-13T08:31:24.974Z,915.97
2023-03-13T08:33:52.205Z,920.38
2023-03-13T08:36:24.930Z,925.42
2023-03-13T08:38:53.440Z,928.97
2023-03-13T08:41:22.976Z,933.88
2023-03-13T08:43:51.622Z,931.33
2023-03-13T08:46:19.727Z,945.63
2023-03-13T08:48:50.276Z,930.50
2023-03-13T08:51:17.775Z,950.28
2023-03-13T08:53:44.978Z,940.22
2023-03-13T08:56:16.928Z,956.80
2023-03-13T08:58:43.703Z,957.77
2023-03-13T09:01:13.147Z,963.90
2023-03-13T09:03:41.242Z,969.03
2023-03-13T09:06:08.407Z,971.28
2023-03-13T09:08:35.416Z,979.33
2023-03-13T09:11:05.305Z,990.78
2023-03-13T09:13:35.350Z,1002.15
2023-03-13T09:16:04.853Z,1004.92
2023-03-13T09:18:32.296Z,995.85
2023-03-13T09:20:58.913Z,995.70
2023-03-13T09:23:25.908Z,994.38
2023-03-13T09:25:54.157Z,995.75
2023-03-13T09:28:22.053Z,996.40
2023-03-13T09:30:50.012Z,1036.97
2023-03-13T09:33:18.059Z,1063.93
2023-03-13T09:35:50.591Z,1080.88
2023-03-13T09:38:18.704Z,1097.10
2023-03-13T09:40:59.822Z,1129.32
2023-03-13T09:43:47.891Z,1150.95
2023-03-13T09:46:36.144Z,1170.30
2023-03-13T09:49:18.430Z,1185.82
2023-03-13T09:51:50.745Z,1198.65
2023-03-13T09:54:32.312Z,1186.90
2023-03-13T09:57:35.907Z,1187.78
2023-03-13T10:00:12.504Z,1192.23
2023-03-13T10:02:40.532Z,1201.55
2023-03-13T10:05:15.847Z,1195.63
2023-03-13T10:07:43.020Z,1199.68
2023-03-13T10:10:18.135Z,1191.63
2023-03-13T10:12:47.071Z,1202.05
2023-03-13T10:15:35.846Z,1206.40
2023-03-13T10:18:20.605Z,1226.32
2023-03-13T10:20:50.773Z,1235.18
2023-03-13T10:23:25.404Z,1230.18
2023-03-13T10:25:52.076Z,1230.50
2023-03-13T10:28:22.801Z,1218.15
2023-03-13T10:30:54.188Z,1208.57
2023-03-13T10:33:25.237Z,1232.53
2023-03-13T10:36:12.753Z,1232.03
2023-03-13T10:38:54.563Z,1232.97
2023-03-13T10:41:38.572Z,1237.28
2023-03-13T10:44:16.962Z,1223.55
2023-03-13T10:46:47.040Z,1200.93
2023-03-13T10:49:32.392Z,1187.23
2023-03-13T10:52:04.819Z,1166.93
2023-03-13T10:54:37.508Z,1159.90
2023-03-13T10:57:19.161Z,1147.30
2023-03-13T10:59:50.820Z,1144.07
2023-03-13T11:02:38.378Z,1143.30
2023-03-13T11:05:25.367Z,1146.07
2023-03-13T11:07:53.349Z,1152.90
2023-03-13T11:10:24.996Z,1152.30
2023-03-13T11:12:53.750Z,1165.05
2023-03-13T11:15:35.685Z,1181.03
2023-03-13T11:18:12.668Z,1190.60
2023-03-13T11:20:45.502Z,1184.28
2023-03-13T11:23:31.279Z,1185.60
2023-03-13T11:26:22.122Z,1187.95
2023-03-13T11:28:57.513Z,1183.22
2023-03-13T11:31:30.258Z,1165.57
2023-03-13T11:34:06.156Z,1162.20
2023-03-13T11:36:39.474Z,1175.38
2023-03-13T11:39:56.026Z,1183.90
2023-03-13T11:42:36.880Z,1187.00
2023-03-13T11:45:44.165Z,1187.10
2023-03-13T11:48:51.706Z,1178.80
2023-03-13T11:51:41.193Z,1175.78
2023-03-13T11:54:13.678Z,1160.25
2023-03-13T11:56:44.170Z,1156.13
2023-03-13T11:59:20.684Z,1150.53
2023-03-13T12:01:53.043Z,1139.25
2023-03-13T12:04:47.628Z,1141.70
2023-03-13T12:07:35.043Z,1135.45
2023-03-13T12:10:16.173Z,1138.22
2023-03-13T12:12:56.697Z,1135.85
2023-03-13T12:15:34.445Z,1151.40
2023-03-13T12:18:03.951Z,1153.30
2023-03-13T12:20:41.211Z,1162.03
2023-03-13T12:23:27.348Z,1176.13
2023-03-13T12:26:00.382Z,1180.13
2023-03-13T12:28:42.804Z,1179.15
2023-03-13T12:31:25.918Z,1163.20
2023-03-13T12:33:52.766Z,1159.07
2023-03-13T12:36:19.825Z,1161.78
2023-03-13T12:39:01.024Z,1168.38
2023-03-13T12:41:43.110Z,1164.35
2023-03-13T12:44:15.509Z,1155.85
2023-03-13T12:46:58.441Z,1154.38
2023-03-13T12:49:54.586Z,1156.40
2023-03-13T12:52:54.084Z,1151.55
2023-03-13T12:55:33.138Z,1150.68
2023-03-13T12:57:59.854Z,1154.53
2023-03-13T13:00:30.186Z,1151.07
2023-03-13T13:03:17.787Z,1157.55
2023-03-13T13:06:11.460Z,1155.28
2023-03-13T13:08:42.668Z,1150.68
2023-03-13T13:11:34.789Z,1153.43
2023-03-13T13:14:05.590Z,1155.65
2023-03-13T13:16:33.233Z,1152.32
2023-03-13T13:19:24.704Z,1147.25
2023-03-13T13:22:28.875Z,1144.82
2023-03-13T13:24:58.333Z,1148.03
2023-03-13T13:27:36.846Z,1150.10
2023-03-13T13:30:25.576Z,1147.28
2023-03-13T13:33:16.237Z,1143.65
2023-03-13T13:35:43.019Z,1145.22
2023-03-13T13:38:18.601Z,1137.75
2023-03-13T13:41:10.677Z,1136.17
2023-03-13T13:43:41.756Z,1131.65
2023-03-13T13:46:10.623Z,1125.90
2023-03-13T13:48:39.820Z,1127.47
2023-03-13T13:51:13.902Z,1133.93
2023-03-13T13:53:45.238Z,1132.85
2023-03-13T13:56:33.666Z,1138.22
2023-03-13T13:59:21.596Z,1138.50
2023-03-13T14:02:10.382Z,1134.15
2023-03-13T14:05:03.878Z,1140.80
2023-03-13T14:07:48.123Z,1138.25
2023-03-13T14:10:45.670Z,1138.20
2023-03-13T14:13:16.549Z,1136.00
2023-03-13T14:15:48.479Z,1123.85
2023-03-13T14:18:26.534Z,1123.72
2023-03-13T14:21:04.427Z,1126.97
2023-03-13T14:23:41.889Z,1132.60
2023-03-13T14:26:28.687Z,1141.13
2023-03-13T14:29:02.655Z,1145.03
2023-03-13T14:31:35.803Z,1144.13
2023-03-13T14:34:30.989Z,1145.80
2023-03-13T14:37:16.846Z,1146.10
2023-03-13T14:39:45.466Z,1149.80
2023-03-13T14:42:17.444Z,1145.00
2023-03-13T14:44:47.202Z,1153.55
2023-03-13T14:47:16.668Z,1157.07
2023-03-13T14:49:46.138Z,1153.18
2023-03-13T14:52:25.096Z,1144.82
2023-03-13T14:54:56.782Z,1145.15
2023-03-13T14:57:27.667Z,1140.50
2023-03-13T14:59:56.057Z,1133.25
2023-03-13T15:02:24.334Z,1128.20
2023-03-13T15:04:59.646Z,1138.35
2023-03-13T15:07:37.517Z,1136.15
2023-03-13T15:10:23.058Z,1130.10
2023-03-13T15:12:50.306Z,1124.35
2023-03-13T15:15:17.700Z,1127.32
2023-03-13T15:17:44.872Z,1124.15
2023-03-13T15:20:14.726Z,1128.78
2023-03-13T15:22:44.931Z,1141.72
2023-03-13T15:25:31.884Z,1142.82
2023-03-13T15:27:58.475Z,1138.95
2023-03-13T15:30:25.158Z,1130.57
2023-03-13T15:32:52.144Z,1137.35
2023-03-13T15:35:27.396Z,1124.15
2023-03-13T15:37:55.335Z,1123.95
2023-03-13T15:40:24.120Z,1119.25
2023-03-13T15:42:51.877Z,1121.50
2023-03-13T15:45:18.793Z,1122.43
2023-03-13T15:47:45.837Z,1122.60
2023-03-13T15:50:14.548Z,1118.20
2023-03-13T15:52:41.273Z,1120.50
2023-03-13T15:55:09.890Z,1124.75
2023-03-13T15:57:39.898Z,1122.57
2023-03-13T16:00:12.201Z,1123.85
2023-03-13T16:02:38.790Z,1122.70
2023-03-13T16:05:06.663Z,1122.57
2023-03-13T16:07:34.470Z,1117.28
2023-03-13T16:10:01.167Z,1108.68
2023-03-13T16:12:27.928Z,1106.63
2023-03-13T16:14:54.611Z,1115.68
2023-03-13T16:17:22.089Z,1123.40
2023-03-13T16:19:48.781Z,1118.13
2023-03-13T16:22:15.647Z,1119.55
2023-03-13T16:24:42.355Z,1113.22
2023-03-13T16:27:17.374Z,1110.88
2023-03-13T16:29:45.436Z,1109.00
2023-03-13T16:32:14.867Z,1109.20
2023-03-13T16:34:41.727Z,1099.32
2023-03-13T16:37:16.644Z,1092.88
2023-03-13T16:39:44.367Z,1095.63
2023-03-13T16:42:11.604Z,1097.60
2023-03-13T16:44:38.714Z,1086.60
2023-03-13T16:47:28.201Z,1083.80
2023-03-13T16:49:55.299Z,1091.28
2023-03-13T16:52:22.047Z,1079.93
2023-03-13T16:54:48.775Z,1086.07
2023-03-13T16:57:23.786Z,1077.93
2023-03-13T16:59:53.423Z,1084.00
2023-03-13T17:02:20.714Z,1079.43
2023-03-13T17:04:48.308Z,1079.03
2023-03-13T17:07:18.393Z,1088.40
2023-03-13T17:09:45.053Z,1078.50
2023-03-13T17:12:11.810Z,1072.72
2023-03-13T17:14:38.504Z,1072.25
2023-03-13T17:17:05.374Z,1073.15
2023-03-13T17:19:32.220Z,1068.68
2023-03-13T17:21:58.902Z,1065.13
2023-03-13T17:24:25.608Z,1063.07
2023-03-13T17:26:52.347Z,1061.75
2023-03-13T17:29:19.105Z,1061.50
2023-03-13T17:31:45.866Z,1065.35
2023-03-13T17:34:13.019Z,1063.90
2023-03-13T17:36:39.927Z,1065.72
2023-03-13T17:39:08.763Z,1067.60
2023-03-13T17:41:35.873Z,1062.53
2023-03-13T17:44:05.764Z,1058.22
2023-03-13T17:46:40.367Z,1053.50
2023-03-13T17:49:10.359Z,1038.95
2023-03-13T17:51:37.072Z,1041.85
2023-03-13T17:54:03.841Z,1027.28
2023-03-13T17:56:38.636Z,1025.47
2023-03-13T17:59:10.411Z,1023.42
2023-03-13T18:01:37.125Z,1016.20
2023-03-13T18:04:04.136Z,1018.08
2023-03-13T18:06:42.817Z,1015.25
2023-03-13T18:09:27.606Z,1009.58
2023-03-13T18:11:54.260Z,1008.90
2023-03-13T18:14:22.206Z,1014.53
2023-03-13T18:16:50.461Z,1009.17
2023-03-13T18:19:22.424Z,1007.78
2023-03-13T18:21:51.922Z,998.90
2023-03-13T18:24:19.136Z,1004.83
2023-03-13T18:26:47.413Z,1006.95
2023-03-13T18:29:25.934Z,1005.20
2023-03-13T18:31:55.590Z,1005.92
2023-03-13T18:34:24.656Z,998.47
2023-03-13T18:36:52.055Z,997.75
2023-03-13T18:39:20.148Z,1000.22
2023-03-13T18:41:48.256Z,997.27
2023-03-13T18:44:16.030Z,997.33
2023-03-13T18:46:43.381Z,995.08
2023-03-13T18:49:17.297Z,994.65
2023-03-13T18:51:44.504Z,992.78
2023-03-13T18:54:11.199Z,985.35
2023-03-13T18:56:38.049Z,980.53
2023-03-13T18:59:06.444Z,981.90
2023-03-13T19:01:33.160Z,976.50
2023-03-13T19:04:00.768Z,984.38
2023-03-13T19:06:32.144Z,991.35
2023-03-13T19:09:01.083Z,985.90
2023-03-13T19:11:30.940Z,982.30
2023-03-13T19:13:58.447Z,986.17
2023-03-13T19:16:27.336Z,980.83
2023-03-13T19:18:54.399Z,977.97
2023-03-13T19:21:26.734Z,979.20
2023-03-13T19:23:54.169Z,979.30
2023-03-13T19:26:35.594Z,978.50
2023-03-13T19:29:02.540Z,982.35
2023-03-13T19:31:29.184Z,981.47
2023-03-13T19:33:55.875Z,988.03
2023-03-13T19:36:24.063Z,987.70
2023-03-13T19:38:51.380Z,997.63
2023-03-13T19:41:18.260Z,991.05
2023-03-13T19:43:47.794Z,992.20
2023-03-13T19:46:17.361Z,991.53
2023-03-13T19:48:44.017Z,989.70
2023-03-13T19:51:10.669Z,993.63
2023-03-13T19:53:37.336Z,995.78
2023-03-13T19:56:21.293Z,986.72
2023-03-13T19:58:49.854Z,980.83
2023-03-13T20:01:17.973Z,977.65
2023-03-13T20:03:46.348Z,975.33
2023-03-13T20:06:28.610Z,984.75
2023-03-13T20:09:00.643Z,995.78
2023-03-13T20:11:29.998Z,999.70
2023-03-13T20:13:57.233Z,993.28
2023-03-13T20:16:30.054Z,1001.53
2023-03-13T20:18:58.018Z,1000.25
2023-03-13T20:21:28.867Z,999.33
2023-03-13T20:23:57.331Z,1008.00
2023-03-13T20:26:24.795Z,994.10
2023-03-13T20:28:52.996Z,993.78
2023-03-13T20:31:23.557Z,990.83
2023-03-13T20:33:50.199Z,978.15
2023-03-13T20:36:19.208Z,979.63
2023-03-13T20:38:45.900Z,978.03
2023-03-13T20:41:12.668Z,971.88
2023-03-13T20:43:39.920Z,971.65
2023-03-13T20:46:07.478Z,951.50
2023-03-13T20:48:42.339Z,949.87
2023-03-13T20:51:09.780Z,957.00
2023-03-13T20:53:38.408Z,946.97
2023-03-13T20:56:06.964Z,938.78
2023-03-13T20:58:34.823Z,950.25
2023-03-13T21:01:02.861Z,939.80
2023-03-13T21:03:31.768Z,945.08
2023-03-13T21:05:58.441Z,938.80
2023-03-13T21:08:25.043Z,939.80
2023-03-13T21:10:51.693Z,935.53
2023-03-13T21:13:18.337Z,929.35
2023-03-13T21:15:44.966Z,923.78
2023-03-13T21:18:11.592Z,925.25
2023-03-13T21:20:39.175Z,925.63
2023-03-13T21:23:05.823Z,927.92
2023-03-13T21:25:32.466Z,918.25
2023-03-13T21:27:59.514Z,923.40
2023-03-13T21:30:26.296Z,925.65
2023-03-13T21:32:54.331Z,930.92
2023-03-13T21:35:21.054Z,922.05
2023-03-13T21:37:47.682Z,923.60
2023-03-13T21:40:14.510Z,918.85
2023-03-13T21:42:41.224Z,930.15
2023-03-13T21:45:08.717Z,931.05
2023-03-13T21:47:38.359Z,922.95
2023-03-13T21:50:06.931Z,918.60
2023-03-13T21:52:38.236Z,919.88
2023-03-13T21:55:09.936Z,915.13
2023-03-13T21:57:36.549Z,914.17
2023-03-13T22:00:07.896Z,910.45
2023-03-13T22:02:37.757Z,899.85
2023-03-13T22:05:05.428Z,902.78
2023-03-13T22:07:32.258Z,903.33
2023-03-13T22:10:00.759Z,900.40
2023-03-13T22:12:28.236Z,894.13
2023-03-13T22:14:57.417Z,904.15
2023-03-13T22:17:24.384Z,906.10
2023-03-13T22:19:51.125Z,910.63
2023-03-13T22:22:19.734Z,907.67
2023-03-13T22:24:46.590Z,913.25
2023-03-13T22:27:13.563Z,912.10
2023-03-13T22:29:40.203Z,917.63
2023-03-13T22:32:06.983Z,909.95
2023-03-13T22:34:33.671Z,906.92
2023-03-13T22:37:00.383Z,905.08
2023-03-13T22:39:27.016Z,908.38
2023-03-13T22:41:53.624Z,910.53
2023-03-13T22:44:20.625Z,895.35
2023-03-13T22:46:48.013Z,895.28
2023-03-13T22:49:14.708Z,908.45
2023-03-13T22:51:41.339Z,903.03
2023-03-13T22:54:07.966Z,905.75
2023-03-13T22:56:34.988Z,901.88
2023-03-13T22:59:03.003Z,903.13
2023-03-13T23:01:29.943Z,900.03
2023-03-13T23:03:56.757Z,894.13
2023-03-13T23:06:25.616Z,894.60
2023-03-13T23:08:52.937Z,893.17
2023-03-13T23:11:20.745Z,894.95
2023-03-13T23:13:47.530Z,898.08
2023-03-13T23:16:14.703Z,901.95
2023-03-13T23:18:41.884Z,899.17
2023-03-13T23:21:13.546Z,891.88
2023-03-13T23:23:40.696Z,887.88
2023-03-13T23:26:12.903Z,878.45
2023-03-13T23:28:40.359Z,875.30
2023-03-13T23:31:13.023Z,867.22
2023-03-13T23:33:39.691Z,849.53
2023-03-13T23:36:08.661Z,869.13
2023-03-13T23:38:35.418Z,863.92
2023-03-13T23:41:12.950Z,862.35
2023-03-13T23:43:40.117Z,863.10
2023-03-13T23:46:16.084Z,864.28
2023-03-13T23:48:42.860Z,874.20
2023-03-13T23:51:09.663Z,881.85
2023-03-13T23:53:37.447Z,872.28
2023-03-13T23:56:04.542Z,869.00
2023-03-13T23:58:32.779Z,872.53
